sensor_id;sensor_type;location;lat;lon;timestamp;P1;durP1;ratioP1;P2;durP2;ratioP2
23596;SDS011;40226;50.874;4.394;2023-04-25T00:01:50;28.50;;;6.72;;
23596;SDS011;40226;50.874;4.394;2023-04-25T00:04:16;25.25;;;6.20;;
23596;SDS011;40226;50.874;4.394;2023-04-25T00:06:41;26.45;;;6.75;;
23596;SDS011;40226;50.874;4.394;2023-04-25T00:09:07;26.92;;;7.25;;
23596;SDS011;40226;50.874;4.394;2023-04-25T00:11:35;26.17;;;6.43;;
23596;SDS011;40226;50.874;4.394;2023-04-25T00:14:00;30.27;;;6.60;;
23596;SDS011;40226;50.874;4.394;2023-04-25T00:16:27;20.10;;;6.45;;
23596;SDS011;40226;50.874;4.394;2023-04-25T00:18:54;29.50;;;6.70;;
23596;SDS011;40226;50.874;4.394;2023-04-25T00:21:20;25.02;;;6.10;;
23596;SDS011;40226;50.874;4.394;2023-04-25T00:23:46;14.80;;;5.70;;
23596;SDS011;40226;50.874;4.394;2023-04-25T00:26:12;26.05;;;6.60;;
23596;SDS011;40226;50.874;4.394;2023-04-25T00:28:38;26.02;;;6.82;;
23596;SDS011;40226;50.874;4.394;2023-04-25T00:31:06;23.65;;;6.15;;
23596;SDS011;40226;50.874;4.394;2023-04-25T00:33:31;27.88;;;6.70;;
23596;SDS011;40226;50.874;4.394;2023-04-25T00:35:57;25.98;;;6.28;;
23596;SDS011;40226;50.874;4.394;2023-04-25T00:38:23;26.08;;;6.50;;
23596;SDS011;40226;50.874;4.394;2023-04-25T00:40:48;23.05;;;7.13;;
23596;SDS011;40226;50.874;4.394;2023-04-25T00:43:14;29.13;;;6.88;;
23596;SDS011;40226;50.874;4.394;2023-04-25T00:45:40;22.02;;;6.05;;
23596;SDS011;40226;50.874;4.394;2023-04-25T00:48:08;27.02;;;6.32;;
23596;SDS011;40226;50.874;4.394;2023-04-25T00:50:34;24.75;;;7.07;;
23596;SDS011;40226;50.874;4.394;2023-04-25T00:53:00;24.75;;;6.57;;
23596;SDS011;40226;50.874;4.394;2023-04-25T00:55:27;32.22;;;7.47;;
23596;SDS011;40226;50.874;4.394;2023-04-25T00:57:53;18.30;;;6.07;;
23596;SDS011;40226;50.874;4.394;2023-04-25T01:00:18;27.40;;;7.45;;
23596;SDS011;40226;50.874;4.394;2023-04-25T01:02:46;22.63;;;6.35;;
23596;SDS011;40226;50.874;4.394;2023-04-25T01:05:11;31.30;;;7.30;;
23596;SDS011;40226;50.874;4.394;2023-04-25T01:07:38;30.08;;;7.00;;
23596;SDS011;40226;50.874;4.394;2023-04-25T01:10:04;26.38;;;7.13;;
23596;SDS011;40226;50.874;4.394;2023-04-25T01:12:31;27.98;;;6.95;;
23596;SDS011;40226;50.874;4.394;2023-04-25T01:14:57;29.30;;;7.25;;
23596;SDS011;40226;50.874;4.394;2023-04-25T01:17:22;28.95;;;7.03;;
23596;SDS011;40226;50.874;4.394;2023-04-25T01:19:48;32.60;;;7.32;;
23596;SDS011;40226;50.874;4.394;2023-04-25T01:22:15;27.00;;;7.28;;
23596;SDS011;40226;50.874;4.394;2023-04-25T01:24:41;24.15;;;6.43;;
23596;SDS011;40226;50.874;4.394;2023-04-25T01:27:08;32.22;;;7.82;;
23596;SDS011;40226;50.874;4.394;2023-04-25T01:29:34;28.48;;;6.93;;
23596;SDS011;40226;50.874;4.394;2023-04-25T01:32:00;22.33;;;7.15;;
23596;SDS011;40226;50.874;4.394;2023-04-25T01:34:26;21.60;;;7.13;;
23596;SDS011;40226;50.874;4.394;2023-04-25T01:36:52;29.73;;;8.10;;
23596;SDS011;40226;50.874;4.394;2023-04-25T01:39:18;26.92;;;7.20;;
23596;SDS011;40226;50.874;4.394;2023-04-25T01:41:46;26.17;;;7.28;;
23596;SDS011;40226;50.874;4.394;2023-04-25T01:44:12;25.67;;;6.90;;
23596;SDS011;40226;50.874;4.394;2023-04-25T01:46:38;26.52;;;7.47;;
23596;SDS011;40226;50.874;4.394;2023-04-25T01:49:04;30.05;;;7.28;;
23596;SDS011;40226;50.874;4.394;2023-04-25T01:51:30;27.23;;;7.68;;
23596;SDS011;40226;50.874;4.394;2023-04-25T01:53:56;30.52;;;7.18;;
23596;SDS011;40226;50.874;4.394;2023-04-25T01:56:23;26.95;;;7.07;;
23596;SDS011;40226;50.874;4.394;2023-04-25T01:58:48;33.58;;;7.28;;
23596;SDS011;40226;50.874;4.394;2023-04-25T02:01:14;26.30;;;7.47;;
23596;SDS011;40226;50.874;4.394;2023-04-25T02:03:40;27.73;;;7.53;;
23596;SDS011;40226;50.874;4.394;2023-04-25T02:06:06;25.75;;;7.45;;
23596;SDS011;40226;50.874;4.394;2023-04-25T02:08:31;30.60;;;7.25;;
23596;SDS011;40226;50.874;4.394;2023-04-25T02:10:57;26.65;;;7.40;;
23596;SDS011;40226;50.874;4.394;2023-04-25T02:13:23;23.92;;;7.65;;
23596;SDS011;40226;50.874;4.394;2023-04-25T02:15:49;27.70;;;7.18;;
23596;SDS011;40226;50.874;4.394;2023-04-25T02:18:14;27.85;;;7.20;;
23596;SDS011;40226;50.874;4.394;2023-04-25T02:20:42;31.15;;;8.45;;
23596;SDS011;40226;50.874;4.394;2023-04-25T02:23:09;24.55;;;7.65;;
23596;SDS011;40226;50.874;4.394;2023-04-25T02:25:34;35.60;;;7.95;;
23596;SDS011;40226;50.874;4.394;2023-04-25T02:28:00;26.30;;;7.88;;
23596;SDS011;40226;50.874;4.394;2023-04-25T02:30:26;32.08;;;7.47;;
23596;SDS011;40226;50.874;4.394;2023-04-25T02:32:51;31.95;;;7.90;;
23596;SDS011;40226;50.874;4.394;2023-04-25T02:35:17;28.98;;;7.82;;
23596;SDS011;40226;50.874;4.394;2023-04-25T02:37:43;29.30;;;7.70;;
23596;SDS011;40226;50.874;4.394;2023-04-25T02:40:09;27.23;;;7.97;;
23596;SDS011;40226;50.874;4.394;2023-04-25T02:42:35;29.80;;;8.30;;
23596;SDS011;40226;50.874;4.394;2023-04-25T02:45:01;39.67;;;8.20;;
23596;SDS011;40226;50.874;4.394;2023-04-25T02:47:27;23.52;;;7.70;;
23596;SDS011;40226;50.874;4.394;2023-04-25T02:49:53;29.30;;;7.90;;
23596;SDS011;40226;50.874;4.394;2023-04-25T02:52:18;28.77;;;7.85;;
23596;SDS011;40226;50.874;4.394;2023-04-25T02:54:45;28.52;;;7.38;;
23596;SDS011;40226;50.874;4.394;2023-04-25T02:57:10;27.58;;;7.18;;
23596;SDS011;40226;50.874;4.394;2023-04-25T02:59:36;24.77;;;7.10;;
23596;SDS011;40226;50.874;4.394;2023-04-25T03:02:02;30.88;;;7.70;;
23596;SDS011;40226;50.874;4.394;2023-04-25T03:04:28;29.77;;;7.40;;
23596;SDS011;40226;50.874;4.394;2023-04-25T03:06:53;31.70;;;7.90;;
23596;SDS011;40226;50.874;4.394;2023-04-25T03:09:19;25.83;;;7.90;;
23596;SDS011;40226;50.874;4.394;2023-04-25T03:11:45;30.55;;;7.70;;
23596;SDS011;40226;50.874;4.394;2023-04-25T03:14:11;29.40;;;8.10;;
23596;SDS011;40226;50.874;4.394;2023-04-25T03:16:37;24.45;;;7.35;;
23596;SDS011;40226;50.874;4.394;2023-04-25T03:19:03;39.78;;;7.20;;
23596;SDS011;40226;50.874;4.394;2023-04-25T03:21:29;27.45;;;7.32;;
23596;SDS011;40226;50.874;4.394;2023-04-25T03:23:56;30.35;;;7.63;;
23596;SDS011;40226;50.874;4.394;2023-04-25T03:26:22;27.05;;;7.63;;
23596;SDS011;40226;50.874;4.394;2023-04-25T03:28:48;28.90;;;7.20;;
23596;SDS011;40226;50.874;4.394;2023-04-25T03:31:14;32.70;;;8.00;;
23596;SDS011;40226;50.874;4.394;2023-04-25T03:33:39;29.27;;;7.30;;
23596;SDS011;40226;50.874;4.394;2023-04-25T03:36:05;30.90;;;6.63;;
23596;SDS011;40226;50.874;4.394;2023-04-25T03:38:31;27.98;;;7.32;;
23596;SDS011;40226;50.874;4.394;2023-04-25T03:40:57;25.95;;;7.22;;
23596;SDS011;40226;50.874;4.394;2023-04-25T03:43:22;33.90;;;7.80;;
23596;SDS011;40226;50.874;4.394;2023-04-25T03:45:48;28.58;;;7.00;;
23596;SDS011;40226;50.874;4.394;2023-04-25T03:48:14;27.23;;;7.38;;
23596;SDS011;40226;50.874;4.394;2023-04-25T03:50:39;26.65;;;7.00;;
23596;SDS011;40226;50.874;4.394;2023-04-25T03:53:05;30.23;;;7.22;;
23596;SDS011;40226;50.874;4.394;2023-04-25T03:55:31;24.35;;;7.22;;
23596;SDS011;40226;50.874;4.394;2023-04-25T03:57:57;25.45;;;6.75;;
23596;SDS011;40226;50.874;4.394;2023-04-25T04:00:23;21.58;;;7.07;;
23596;SDS011;40226;50.874;4.394;2023-04-25T04:02:50;26.80;;;6.85;;
23596;SDS011;40226;50.874;4.394;2023-04-25T04:05:15;32.65;;;6.90;;
23596;SDS011;40226;50.874;4.394;2023-04-25T04:07:41;25.75;;;7.40;;
23596;SDS011;40226;50.874;4.394;2023-04-25T04:10:08;28.23;;;8.15;;
23596;SDS011;40226;50.874;4.394;2023-04-25T04:12:35;27.77;;;7.75;;
23596;SDS011;40226;50.874;4.394;2023-04-25T04:15:01;31.88;;;8.73;;
23596;SDS011;40226;50.874;4.394;2023-04-25T04:17:28;23.27;;;7.57;;
23596;SDS011;40226;50.874;4.394;2023-04-25T04:19:54;27.23;;;8.45;;
23596;SDS011;40226;50.874;4.394;2023-04-25T04:22:20;23.83;;;8.13;;
23596;SDS011;40226;50.874;4.394;2023-04-25T04:24:46;32.10;;;8.95;;
23596;SDS011;40226;50.874;4.394;2023-04-25T04:27:11;30.80;;;8.32;;
23596;SDS011;40226;50.874;4.394;2023-04-25T04:29:37;29.98;;;8.23;;
23596;SDS011;40226;50.874;4.394;2023-04-25T04:32:04;27.63;;;8.77;;
23596;SDS011;40226;50.874;4.394;2023-04-25T04:34:29;25.42;;;8.45;;
23596;SDS011;40226;50.874;4.394;2023-04-25T04:36:56;27.48;;;8.55;;
23596;SDS011;40226;50.874;4.394;2023-04-25T04:39:22;21.33;;;7.65;;
23596;SDS011;40226;50.874;4.394;2023-04-25T04:41:47;26.15;;;8.40;;
23596;SDS011;40226;50.874;4.394;2023-04-25T04:44:13;29.27;;;8.75;;
23596;SDS011;40226;50.874;4.394;2023-04-25T04:46:39;31.45;;;9.35;;
23596;SDS011;40226;50.874;4.394;2023-04-25T04:49:08;20.17;;;7.90;;
23596;SDS011;40226;50.874;4.394;2023-04-25T04:51:34;27.08;;;8.13;;
23596;SDS011;40226;50.874;4.394;2023-04-25T04:54:00;30.48;;;9.00;;
23596;SDS011;40226;50.874;4.394;2023-04-25T04:56:27;27.25;;;7.88;;
23596;SDS011;40226;50.874;4.394;2023-04-25T04:58:56;24.98;;;7.75;;
23596;SDS011;40226;50.874;4.394;2023-04-25T05:01:22;25.65;;;6.85;;
23596;SDS011;40226;50.874;4.394;2023-04-25T05:03:48;26.27;;;6.97;;
23596;SDS011;40226;50.874;4.394;2023-04-25T05:06:15;30.05;;;7.45;;
23596;SDS011;40226;50.874;4.394;2023-04-25T05:08:41;31.48;;;7.70;;
23596;SDS011;40226;50.874;4.394;2023-04-25T05:11:07;26.52;;;7.20;;
23596;SDS011;40226;50.874;4.394;2023-04-25T05:13:33;33.15;;;8.77;;
23596;SDS011;40226;50.874;4.394;2023-04-25T05:15:58;27.33;;;8.52;;
23596;SDS011;40226;50.874;4.394;2023-04-25T05:18:24;28.23;;;8.40;;
23596;SDS011;40226;50.874;4.394;2023-04-25T05:20:50;18.27;;;9.07;;
23596;SDS011;40226;50.874;4.394;2023-04-25T05:23:15;25.25;;;8.95;;
23596;SDS011;40226;50.874;4.394;2023-04-25T05:25:41;25.13;;;8.27;;
23596;SDS011;40226;50.874;4.394;2023-04-25T05:28:07;26.48;;;7.60;;
23596;SDS011;40226;50.874;4.394;2023-04-25T05:30:33;23.15;;;6.85;;
23596;SDS011;40226;50.874;4.394;2023-04-25T05:32:59;28.65;;;7.72;;
23596;SDS011;40226;50.874;4.394;2023-04-25T05:35:25;25.30;;;7.25;;
23596;SDS011;40226;50.874;4.394;2023-04-25T05:37:51;26.92;;;6.45;;
23596;SDS011;40226;50.874;4.394;2023-04-25T05:40:16;28.98;;;7.10;;
23596;SDS011;40226;50.874;4.394;2023-04-25T05:42:42;18.80;;;6.40;;
23596;SDS011;40226;50.874;4.394;2023-04-25T05:45:08;26.38;;;6.60;;
23596;SDS011;40226;50.874;4.394;2023-04-25T05:47:34;29.30;;;7.20;;
23596;SDS011;40226;50.874;4.394;2023-04-25T05:50:00;22.42;;;6.18;;
23596;SDS011;40226;50.874;4.394;2023-04-25T05:52:26;24.83;;;7.93;;
23596;SDS011;40226;50.874;4.394;2023-04-25T05:54:51;26.98;;;7.78;;
23596;SDS011;40226;50.874;4.394;2023-04-25T05:57:21;29.35;;;7.82;;
23596;SDS011;40226;50.874;4.394;2023-04-25T05:59:48;24.15;;;8.13;;
23596;SDS011;40226;50.874;4.394;2023-04-25T06:02:13;24.40;;;7.72;;
23596;SDS011;40226;50.874;4.394;2023-04-25T06:04:39;34.28;;;8.52;;
23596;SDS011;40226;50.874;4.394;2023-04-25T06:07:05;36.40;;;8.68;;
23596;SDS011;40226;50.874;4.394;2023-04-25T06:09:30;27.10;;;9.13;;
23596;SDS011;40226;50.874;4.394;2023-04-25T06:11:56;23.13;;;7.97;;
23596;SDS011;40226;50.874;4.394;2023-04-25T06:14:21;28.25;;;8.23;;
23596;SDS011;40226;50.874;4.394;2023-04-25T06:16:47;28.52;;;9.40;;
23596;SDS011;40226;50.874;4.394;2023-04-25T06:19:13;30.17;;;8.85;;
23596;SDS011;40226;50.874;4.394;2023-04-25T06:21:38;32.30;;;9.23;;
23596;SDS011;40226;50.874;4.394;2023-04-25T06:24:04;29.30;;;8.95;;
23596;SDS011;40226;50.874;4.394;2023-04-25T06:26:30;31.73;;;9.07;;
23596;SDS011;40226;50.874;4.394;2023-04-25T06:28:55;27.13;;;10.43;;
23596;SDS011;40226;50.874;4.394;2023-04-25T06:31:21;23.85;;;9.38;;
23596;SDS011;40226;50.874;4.394;2023-04-25T06:33:46;21.50;;;7.95;;
23596;SDS011;40226;50.874;4.394;2023-04-25T06:36:13;18.23;;;7.63;;
23596;SDS011;40226;50.874;4.394;2023-04-25T06:38:39;18.77;;;7.57;;
23596;SDS011;40226;50.874;4.394;2023-04-25T06:41:05;21.65;;;6.53;;
23596;SDS011;40226;50.874;4.394;2023-04-25T06:43:31;23.00;;;6.28;;
23596;SDS011;40226;50.874;4.394;2023-04-25T06:45:58;26.92;;;6.63;;
23596;SDS011;40226;50.874;4.394;2023-04-25T06:48:25;23.55;;;6.85;;
23596;SDS011;40226;50.874;4.394;2023-04-25T06:50:52;23.13;;;6.15;;
23596;SDS011;40226;50.874;4.394;2023-04-25T06:53:17;34.25;;;10.13;;
23596;SDS011;40226;50.874;4.394;2023-04-25T06:55:43;18.88;;;7.10;;
23596;SDS011;40226;50.874;4.394;2023-04-25T06:58:09;26.25;;;6.45;;
23596;SDS011;40226;50.874;4.394;2023-04-25T07:00:35;26.85;;;6.40;;
23596;SDS011;40226;50.874;4.394;2023-04-25T07:03:01;25.52;;;5.88;;
23596;SDS011;40226;50.874;4.394;2023-04-25T07:05:27;20.85;;;5.78;;
23596;SDS011;40226;50.874;4.394;2023-04-25T07:07:52;18.30;;;5.18;;
23596;SDS011;40226;50.874;4.394;2023-04-25T07:10:18;20.65;;;5.88;;
23596;SDS011;40226;50.874;4.394;2023-04-25T07:12:44;19.60;;;5.70;;
23596;SDS011;40226;50.874;4.394;2023-04-25T07:15:09;18.02;;;4.88;;
23596;SDS011;40226;50.874;4.394;2023-04-25T07:17:36;18.42;;;5.15;;
23596;SDS011;40226;50.874;4.394;2023-04-25T07:20:02;21.50;;;5.78;;
23596;SDS011;40226;50.874;4.394;2023-04-25T07:22:28;21.17;;;5.07;;
23596;SDS011;40226;50.874;4.394;2023-04-25T07:24:55;17.67;;;5.38;;
23596;SDS011;40226;50.874;4.394;2023-04-25T07:27:21;16.17;;;5.68;;
23596;SDS011;40226;50.874;4.394;2023-04-25T07:29:46;15.65;;;5.45;;
23596;SDS011;40226;50.874;4.394;2023-04-25T07:32:12;16.00;;;4.57;;
23596;SDS011;40226;50.874;4.394;2023-04-25T07:34:39;20.25;;;5.22;;
23596;SDS011;40226;50.874;4.394;2023-04-25T07:37:04;22.15;;;5.78;;
23596;SDS011;40226;50.874;4.394;2023-04-25T07:39:30;17.77;;;5.63;;
23596;SDS011;40226;50.874;4.394;2023-04-25T07:41:56;20.55;;;5.65;;
23596;SDS011;40226;50.874;4.394;2023-04-25T07:44:24;16.08;;;4.35;;
23596;SDS011;40226;50.874;4.394;2023-04-25T07:46:50;26.73;;;5.28;;
23596;SDS011;40226;50.874;4.394;2023-04-25T07:49:16;26.88;;;5.32;;
23596;SDS011;40226;50.874;4.394;2023-04-25T07:51:42;18.30;;;4.63;;
23596;SDS011;40226;50.874;4.394;2023-04-25T07:54:12;16.08;;;4.90;;
23596;SDS011;40226;50.874;4.394;2023-04-25T07:56:38;17.08;;;4.60;;
23596;SDS011;40226;50.874;4.394;2023-04-25T07:59:04;17.98;;;4.95;;
23596;SDS011;40226;50.874;4.394;2023-04-25T08:01:30;19.08;;;4.90;;
23596;SDS011;40226;50.874;4.394;2023-04-25T08:03:55;14.80;;;4.97;;
23596;SDS011;40226;50.874;4.394;2023-04-25T08:06:21;15.02;;;4.57;;
23596;SDS011;40226;50.874;4.394;2023-04-25T08:08:47;17.73;;;4.70;;
23596;SDS011;40226;50.874;4.394;2023-04-25T08:11:12;12.48;;;4.15;;
23596;SDS011;40226;50.874;4.394;2023-04-25T08:13:38;18.58;;;4.80;;
23596;SDS011;40226;50.874;4.394;2023-04-25T08:16:03;16.63;;;4.30;;
23596;SDS011;40226;50.874;4.394;2023-04-25T08:18:29;13.07;;;4.30;;
23596;SDS011;40226;50.874;4.394;2023-04-25T08:20:55;13.27;;;4.15;;
23596;SDS011;40226;50.874;4.394;2023-04-25T08:23:21;14.82;;;4.25;;
23596;SDS011;40226;50.874;4.394;2023-04-25T08:25:47;13.82;;;4.10;;
23596;SDS011;40226;50.874;4.394;2023-04-25T08:28:13;13.68;;;3.80;;
23596;SDS011;40226;50.874;4.394;2023-04-25T08:30:40;19.05;;;5.05;;
23596;SDS011;40226;50.874;4.394;2023-04-25T08:33:05;14.85;;;4.93;;
23596;SDS011;40226;50.874;4.394;2023-04-25T08:35:31;18.98;;;4.45;;
23596;SDS011;40226;50.874;4.394;2023-04-25T08:37:58;11.77;;;4.40;;
23596;SDS011;40226;50.874;4.394;2023-04-25T08:40:24;17.05;;;4.50;;
23596;SDS011;40226;50.874;4.394;2023-04-25T08:42:55;14.90;;;4.53;;
23596;SDS011;40226;50.874;4.394;2023-04-25T08:45:21;17.92;;;4.15;;
23596;SDS011;40226;50.874;4.394;2023-04-25T08:47:47;16.42;;;4.60;;
23596;SDS011;40226;50.874;4.394;2023-04-25T08:50:15;28.38;;;5.20;;
23596;SDS011;40226;50.874;4.394;2023-04-25T08:52:45;15.02;;;4.03;;
23596;SDS011;40226;50.874;4.394;2023-04-25T08:55:13;17.42;;;4.78;;
23596;SDS011;40226;50.874;4.394;2023-04-25T08:57:40;33.22;;;5.35;;
23596;SDS011;40226;50.874;4.394;2023-04-25T09:00:08;20.83;;;4.38;;
23596;SDS011;40226;50.874;4.394;2023-04-25T09:02:35;11.32;;;3.72;;
23596;SDS011;40226;50.874;4.394;2023-04-25T09:05:01;14.02;;;3.53;;
23596;SDS011;40226;50.874;4.394;2023-04-25T09:07:29;13.88;;;3.20;;
23596;SDS011;40226;50.874;4.394;2023-04-25T09:09:55;14.52;;;3.85;;
23596;SDS011;40226;50.874;4.394;2023-04-25T09:12:21;15.73;;;3.30;;
23596;SDS011;40226;50.874;4.394;2023-04-25T09:15:20;14.75;;;4.15;;
23596;SDS011;40226;50.874;4.394;2023-04-25T09:17:41;13.50;;;3.78;;
23596;SDS011;40226;50.874;4.394;2023-04-25T09:20:09;11.73;;;3.20;;
23596;SDS011;40226;50.874;4.394;2023-04-25T09:22:37;12.60;;;3.42;;
23596;SDS011;40226;50.874;4.394;2023-04-25T09:25:12;15.50;;;3.53;;
23596;SDS011;40226;50.874;4.394;2023-04-25T09:27:53;19.85;;;3.72;;
23596;SDS011;40226;50.874;4.394;2023-04-25T09:30:28;14.98;;;4.20;;
23596;SDS011;40226;50.874;4.394;2023-04-25T09:33:13;11.10;;;3.90;;
23596;SDS011;40226;50.874;4.394;2023-04-25T09:35:43;13.10;;;3.28;;
23596;SDS011;40226;50.874;4.394;2023-04-25T09:38:10;13.52;;;3.38;;
23596;SDS011;40226;50.874;4.394;2023-04-25T09:40:44;14.98;;;3.60;;
23596;SDS011;40226;50.874;4.394;2023-04-25T09:45:46;11.57;;;3.28;;
23596;SDS011;40226;50.874;4.394;2023-04-25T09:48:16;11.25;;;3.45;;
23596;SDS011;40226;50.874;4.394;2023-04-25T09:51:08;11.52;;;3.38;;
23596;SDS011;40226;50.874;4.394;2023-04-25T09:53:38;13.02;;;3.47;;
23596;SDS011;40226;50.874;4.394;2023-04-25T09:56:06;12.80;;;3.55;;
23596;SDS011;40226;50.874;4.394;2023-04-25T09:58:34;16.00;;;3.90;;
23596;SDS011;40226;50.874;4.394;2023-04-25T10:01:03;11.75;;;3.22;;
23596;SDS011;40226;50.874;4.394;2023-04-25T10:03:31;11.63;;;3.40;;
23596;SDS011;40226;50.874;4.394;2023-04-25T10:05:58;11.88;;;3.10;;
23596;SDS011;40226;50.874;4.394;2023-04-25T10:08:25;10.63;;;2.83;;
23596;SDS011;40226;50.874;4.394;2023-04-25T10:10:59;7.97;;;3.10;;
23596;SDS011;40226;50.874;4.394;2023-04-25T10:13:26;9.90;;;2.85;;
23596;SDS011;40226;50.874;4.394;2023-04-25T10:15:53;8.65;;;2.53;;
23596;SDS011;40226;50.874;4.394;2023-04-25T10:18:20;8.85;;;2.70;;
23596;SDS011;40226;50.874;4.394;2023-04-25T10:20:46;12.20;;;2.70;;
23596;SDS011;40226;50.874;4.394;2023-04-25T10:23:12;14.10;;;2.53;;
23596;SDS011;40226;50.874;4.394;2023-04-25T10:25:40;10.30;;;2.40;;
23596;SDS011;40226;50.874;4.394;2023-04-25T10:28:06;9.90;;;2.40;;
23596;SDS011;40226;50.874;4.394;2023-04-25T10:30:32;9.50;;;2.20;;
23596;SDS011;40226;50.874;4.394;2023-04-25T10:32:58;9.93;;;2.30;;
23596;SDS011;40226;50.874;4.394;2023-04-25T10:35:27;7.22;;;2.22;;
23596;SDS011;40226;50.874;4.394;2023-04-25T10:38:10;8.48;;;2.38;;
23596;SDS011;40226;50.874;4.394;2023-04-25T10:40:38;7.03;;;1.90;;
23596;SDS011;40226;50.874;4.394;2023-04-25T10:46:02;7.03;;;2.13;;
23596;SDS011;40226;50.874;4.394;2023-04-25T10:48:37;6.28;;;2.03;;
23596;SDS011;40226;50.874;4.394;2023-04-25T10:51:17;6.38;;;1.90;;
23596;SDS011;40226;50.874;4.394;2023-04-25T10:53:44;9.60;;;2.17;;
23596;SDS011;40226;50.874;4.394;2023-04-25T10:56:19;10.02;;;2.22;;
23596;SDS011;40226;50.874;4.394;2023-04-25T10:58:46;9.75;;;2.50;;
23596;SDS011;40226;50.874;4.394;2023-04-25T11:01:19;6.40;;;3.60;;
23596;SDS011;40226;50.874;4.394;2023-04-25T11:03:46;9.32;;;2.13;;
23596;SDS011;40226;50.874;4.394;2023-04-25T11:07:02;9.27;;;2.53;;
23596;SDS011;40226;50.874;4.394;2023-04-25T11:09:16;11.52;;;2.60;;
23596;SDS011;40226;50.874;4.394;2023-04-25T11:11:41;7.82;;;2.40;;
23596;SDS011;40226;50.874;4.394;2023-04-25T11:14:07;10.07;;;2.88;;
23596;SDS011;40226;50.874;4.394;2023-04-25T11:16:33;9.65;;;2.55;;
23596;SDS011;40226;50.874;4.394;2023-04-25T11:18:58;13.73;;;2.83;;
23596;SDS011;40226;50.874;4.394;2023-04-25T11:21:27;12.48;;;3.33;;
23596;SDS011;40226;50.874;4.394;2023-04-25T11:23:54;14.65;;;3.22;;
23596;SDS011;40226;50.874;4.394;2023-04-25T11:26:21;12.35;;;3.53;;
23596;SDS011;40226;50.874;4.394;2023-04-25T11:28:48;10.25;;;3.00;;
23596;SDS011;40226;50.874;4.394;2023-04-25T11:31:14;13.18;;;3.70;;
23596;SDS011;40226;50.874;4.394;2023-04-25T11:33:40;11.23;;;3.42;;
23596;SDS011;40226;50.874;4.394;2023-04-25T11:36:06;10.90;;;3.47;;
23596;SDS011;40226;50.874;4.394;2023-04-25T11:38:32;9.27;;;2.50;;
23596;SDS011;40226;50.874;4.394;2023-04-25T11:40:57;11.13;;;2.50;;
23596;SDS011;40226;50.874;4.394;2023-04-25T11:43:23;7.00;;;2.40;;
23596;SDS011;40226;50.874;4.394;2023-04-25T11:45:50;11.27;;;2.40;;
23596;SDS011;40226;50.874;4.394;2023-04-25T11:48:17;11.27;;;2.05;;
23596;SDS011;40226;50.874;4.394;2023-04-25T11:50:44;6.78;;;2.38;;
23596;SDS011;40226;50.874;4.394;2023-04-25T11:53:10;6.82;;;2.03;;
23596;SDS011;40226;50.874;4.394;2023-04-25T11:55:36;5.95;;;1.90;;
23596;SDS011;40226;50.874;4.394;2023-04-25T11:58:02;4.45;;;1.95;;
23596;SDS011;40226;50.874;4.394;2023-04-25T12:00:29;7.63;;;2.40;;
23596;SDS011;40226;50.874;4.394;2023-04-25T12:02:55;6.90;;;3.05;;
23596;SDS011;40226;50.874;4.394;2023-04-25T12:05:26;6.22;;;1.98;;
23596;SDS011;40226;50.874;4.394;2023-04-25T12:07:53;9.32;;;2.42;;
23596;SDS011;40226;50.874;4.394;2023-04-25T12:10:19;9.70;;;2.60;;
23596;SDS011;40226;50.874;4.394;2023-04-25T12:12:45;7.63;;;2.47;;
23596;SDS011;40226;50.874;4.394;2023-04-25T12:15:16;5.63;;;2.30;;
23596;SDS011;40226;50.874;4.394;2023-04-25T12:17:48;6.30;;;2.15;;
23596;SDS011;40226;50.874;4.394;2023-04-25T12:20:16;7.50;;;1.80;;
23596;SDS011;40226;50.874;4.394;2023-04-25T12:22:51;7.75;;;2.30;;
23596;SDS011;40226;50.874;4.394;2023-04-25T12:25:34;5.70;;;2.10;;
23596;SDS011;40226;50.874;4.394;2023-04-25T12:33:25;4.50;;;1.40;;
23596;SDS011;40226;50.874;4.394;2023-04-25T12:35:52;4.45;;;1.33;;
23596;SDS011;40226;50.874;4.394;2023-04-25T12:38:25;6.03;;;1.60;;
23596;SDS011;40226;50.874;4.394;2023-04-25T12:40:54;3.78;;;1.40;;
23596;SDS011;40226;50.874;4.394;2023-04-25T12:43:20;6.55;;;1.75;;
23596;SDS011;40226;50.874;4.394;2023-04-25T12:45:50;5.55;;;1.80;;
23596;SDS011;40226;50.874;4.394;2023-04-25T12:48:20;7.03;;;1.48;;
23596;SDS011;40226;50.874;4.394;2023-04-25T12:50:46;4.80;;;1.50;;
23596;SDS011;40226;50.874;4.394;2023-04-25T12:53:16;6.15;;;1.67;;
23596;SDS011;40226;50.874;4.394;2023-04-25T12:55:43;10.15;;;2.10;;
23596;SDS011;40226;50.874;4.394;2023-04-25T12:58:13;6.47;;;1.90;;
23596;SDS011;40226;50.874;4.394;2023-04-25T13:00:39;6.63;;;2.10;;
23596;SDS011;40226;50.874;4.394;2023-04-25T13:03:05;11.15;;;2.50;;
23596;SDS011;40226;50.874;4.394;2023-04-25T13:05:31;10.05;;;2.97;;
23596;SDS011;40226;50.874;4.394;2023-04-25T13:07:57;10.82;;;2.65;;
23596;SDS011;40226;50.874;4.394;2023-04-25T13:10:22;9.02;;;2.20;;
23596;SDS011;40226;50.874;4.394;2023-04-25T13:12:48;10.90;;;2.30;;
23596;SDS011;40226;50.874;4.394;2023-04-25T13:15:14;7.43;;;2.15;;
23596;SDS011;40226;50.874;4.394;2023-04-25T13:17:40;10.38;;;2.22;;
23596;SDS011;40226;50.874;4.394;2023-04-25T13:20:07;10.13;;;2.03;;
23596;SDS011;40226;50.874;4.394;2023-04-25T13:22:37;5.15;;;1.90;;
23596;SDS011;40226;50.874;4.394;2023-04-25T13:25:04;5.93;;;2.00;;
23596;SDS011;40226;50.874;4.394;2023-04-25T13:27:32;7.00;;;2.10;;
23596;SDS011;40226;50.874;4.394;2023-04-25T13:29:59;7.63;;;2.22;;
23596;SDS011;40226;50.874;4.394;2023-04-25T13:32:26;6.18;;;1.95;;
23596;SDS011;40226;50.874;4.394;2023-04-25T13:34:52;3.50;;;1.58;;
23596;SDS011;40226;50.874;4.394;2023-04-25T13:37:18;10.65;;;2.60;;
23596;SDS011;40226;50.874;4.394;2023-04-25T13:39:43;6.90;;;1.60;;
23596;SDS011;40226;50.874;4.394;2023-04-25T13:42:09;8.75;;;2.33;;
23596;SDS011;40226;50.874;4.394;2023-04-25T13:44:36;5.55;;;1.42;;
23596;SDS011;40226;50.874;4.394;2023-04-25T13:47:01;7.38;;;1.90;;
23596;SDS011;40226;50.874;4.394;2023-04-25T13:49:27;7.03;;;2.03;;
23596;SDS011;40226;50.874;4.394;2023-04-25T13:51:52;6.63;;;1.80;;
23596;SDS011;40226;50.874;4.394;2023-04-25T13:54:18;4.97;;;1.63;;
23596;SDS011;40226;50.874;4.394;2023-04-25T13:56:44;8.07;;;1.98;;
23596;SDS011;40226;50.874;4.394;2023-04-25T13:59:10;10.18;;;1.95;;
23596;SDS011;40226;50.874;4.394;2023-04-25T14:01:36;9.35;;;1.83;;
23596;SDS011;40226;50.874;4.394;2023-04-25T14:04:02;6.43;;;1.63;;
23596;SDS011;40226;50.874;4.394;2023-04-25T14:06:31;10.85;;;3.05;;
23596;SDS011;40226;50.874;4.394;2023-04-25T14:08:57;7.38;;;2.80;;
23596;SDS011;40226;50.874;4.394;2023-04-25T14:11:26;5.43;;;1.58;;
23596;SDS011;40226;50.874;4.394;2023-04-25T14:13:51;7.72;;;1.52;;
23596;SDS011;40226;50.874;4.394;2023-04-25T14:16:17;5.28;;;1.63;;
23596;SDS011;40226;50.874;4.394;2023-04-25T14:18:43;7.28;;;1.67;;
23596;SDS011;40226;50.874;4.394;2023-04-25T14:21:09;7.95;;;1.80;;
23596;SDS011;40226;50.874;4.394;2023-04-25T14:23:34;7.13;;;1.83;;
23596;SDS011;40226;50.874;4.394;2023-04-25T14:26:00;6.93;;;1.70;;
23596;SDS011;40226;50.874;4.394;2023-04-25T14:28:26;3.80;;;1.70;;
23596;SDS011;40226;50.874;4.394;2023-04-25T14:30:52;6.50;;;1.67;;
23596;SDS011;40226;50.874;4.394;2023-04-25T14:33:17;5.10;;;1.52;;
23596;SDS011;40226;50.874;4.394;2023-04-25T14:35:43;5.82;;;1.60;;
23596;SDS011;40226;50.874;4.394;2023-04-25T14:38:09;6.75;;;1.60;;
23596;SDS011;40226;50.874;4.394;2023-04-25T14:40:35;6.93;;;1.95;;
23596;SDS011;40226;50.874;4.394;2023-04-25T14:43:00;7.07;;;1.83;;
23596;SDS011;40226;50.874;4.394;2023-04-25T14:45:26;5.88;;;1.70;;
23596;SDS011;40226;50.874;4.394;2023-04-25T14:47:51;8.95;;;1.70;;